< < Back
Terminal Aerodrome Forecast


Current Version              Previous Versions:   1  2  3  4  5  6  7  8  9  

Terminal Aerodrome Forecast

817
FTUS44 KOHX 041736
TAFBNA
TAF
KBNA 041736Z 0418/0518 27006KT P6SM SCT050
     FM050000 01004KT P6SM BKN250
     FM050900 04003KT 5SM BR BKN100 BKN200
     FM051300 01005KT P6SM VCTS BKN040CB BKN080 PROB30 0514/0518 4SM
      -TSRA BR OVC035CB=

Latest METAR

025
SAUS70 KWBC 050620 RRC
MTRBNA
METAR KBNA 050553Z COR 00000KT 10SM BKN250 27/22 A3002 RMK AO2 SLP155
T02670217 10328 20267 403610222 58003


USA.gov is the U.S. government's official web portal to all federal, state and local government web resources and services.